sensor_id;sensor_type;location;lat;lon;timestamp;P1;durP1;ratioP1;P2;durP2;ratioP2
32918;SDS011;19280;42.646;21.150;2023-07-31T00:01:39;12.90;;;10.25;;
32918;SDS011;19280;42.646;21.150;2023-07-31T00:04:05;13.05;;;10.10;;
32918;SDS011;19280;42.646;21.150;2023-07-31T00:06:31;12.82;;;10.57;;
32918;SDS011;19280;42.646;21.150;2023-07-31T00:08:57;12.32;;;11.00;;
32918;SDS011;19280;42.646;21.150;2023-07-31T00:11:23;12.07;;;10.77;;
32918;SDS011;19280;42.646;21.150;2023-07-31T00:13:49;12.73;;;11.25;;
32918;SDS011;19280;42.646;21.150;2023-07-31T00:16:15;13.85;;;12.05;;
32918;SDS011;19280;42.646;21.150;2023-07-31T00:18:41;12.77;;;11.45;;
32918;SDS011;19280;42.646;21.150;2023-07-31T00:21:07;15.02;;;12.07;;
32918;SDS011;19280;42.646;21.150;2023-07-31T00:23:33;12.45;;;11.02;;
32918;SDS011;19280;42.646;21.150;2023-07-31T00:26:00;12.60;;;10.55;;
32918;SDS011;19280;42.646;21.150;2023-07-31T00:28:26;14.80;;;10.02;;
32918;SDS011;19280;42.646;21.150;2023-07-31T00:30:55;12.80;;;10.30;;
32918;SDS011;19280;42.646;21.150;2023-07-31T00:33:21;14.10;;;11.02;;
32918;SDS011;19280;42.646;21.150;2023-07-31T00:35:48;17.00;;;11.30;;
32918;SDS011;19280;42.646;21.150;2023-07-31T00:38:14;18.45;;;11.82;;
32918;SDS011;19280;42.646;21.150;2023-07-31T00:40:40;12.68;;;11.38;;
32918;SDS011;19280;42.646;21.150;2023-07-31T00:43:06;16.33;;;13.55;;
32918;SDS011;19280;42.646;21.150;2023-07-31T00:45:32;14.23;;;12.68;;
32918;SDS011;19280;42.646;21.150;2023-07-31T00:47:58;13.25;;;11.60;;
32918;SDS011;19280;42.646;21.150;2023-07-31T00:50:25;13.38;;;11.88;;
32918;SDS011;19280;42.646;21.150;2023-07-31T00:52:51;14.00;;;12.20;;
32918;SDS011;19280;42.646;21.150;2023-07-31T00:55:17;16.70;;;12.65;;
32918;SDS011;19280;42.646;21.150;2023-07-31T00:57:43;17.65;;;13.43;;
32918;SDS011;19280;42.646;21.150;2023-07-31T01:00:10;14.43;;;12.75;;
32918;SDS011;19280;42.646;21.150;2023-07-31T01:02:37;17.88;;;13.43;;
32918;SDS011;19280;42.646;21.150;2023-07-31T01:05:03;15.20;;;12.77;;
32918;SDS011;19280;42.646;21.150;2023-07-31T01:07:49;16.65;;;13.80;;
32918;SDS011;19280;42.646;21.150;2023-07-31T01:12:46;14.60;;;12.13;;
32918;SDS011;19280;42.646;21.150;2023-07-31T01:15:14;14.07;;;12.40;;
32918;SDS011;19280;42.646;21.150;2023-07-31T01:17:42;15.18;;;12.15;;
32918;SDS011;19280;42.646;21.150;2023-07-31T01:20:17;16.30;;;12.27;;
32918;SDS011;19280;42.646;21.150;2023-07-31T01:23:13;14.98;;;12.85;;
32918;SDS011;19280;42.646;21.150;2023-07-31T01:26:06;15.07;;;13.18;;
32918;SDS011;19280;42.646;21.150;2023-07-31T01:31:18;14.57;;;12.80;;
32918;SDS011;19280;42.646;21.150;2023-07-31T01:33:46;16.85;;;12.68;;
32918;SDS011;19280;42.646;21.150;2023-07-31T01:36:12;15.32;;;11.55;;
32918;SDS011;19280;42.646;21.150;2023-07-31T01:38:38;13.23;;;11.82;;
32918;SDS011;19280;42.646;21.150;2023-07-31T01:41:04;13.15;;;11.25;;
32918;SDS011;19280;42.646;21.150;2023-07-31T01:43:30;13.23;;;11.02;;
32918;SDS011;19280;42.646;21.150;2023-07-31T01:45:56;15.13;;;12.43;;
32918;SDS011;19280;42.646;21.150;2023-07-31T01:48:22;13.57;;;10.77;;
32918;SDS011;19280;42.646;21.150;2023-07-31T01:50:48;12.55;;;10.90;;
32918;SDS011;19280;42.646;21.150;2023-07-31T01:53:14;12.15;;;10.77;;
32918;SDS011;19280;42.646;21.150;2023-07-31T01:55:40;12.30;;;11.10;;
32918;SDS011;19280;42.646;21.150;2023-07-31T01:58:06;11.55;;;10.38;;
32918;SDS011;19280;42.646;21.150;2023-07-31T02:00:32;17.23;;;11.27;;
32918;SDS011;19280;42.646;21.150;2023-07-31T02:02:59;11.75;;;10.55;;
32918;SDS011;19280;42.646;21.150;2023-07-31T02:05:25;13.50;;;11.30;;
32918;SDS011;19280;42.646;21.150;2023-07-31T02:07:51;12.40;;;11.07;;
32918;SDS011;19280;42.646;21.150;2023-07-31T02:10:17;14.82;;;12.38;;
32918;SDS011;19280;42.646;21.150;2023-07-31T02:12:43;14.93;;;12.23;;
32918;SDS011;19280;42.646;21.150;2023-07-31T02:15:11;14.00;;;11.55;;
32918;SDS011;19280;42.646;21.150;2023-07-31T02:17:37;15.00;;;13.32;;
32918;SDS011;19280;42.646;21.150;2023-07-31T02:20:03;14.35;;;12.93;;
32918;SDS011;19280;42.646;21.150;2023-07-31T02:22:29;15.80;;;14.07;;
32918;SDS011;19280;42.646;21.150;2023-07-31T02:24:56;15.35;;;13.45;;
32918;SDS011;19280;42.646;21.150;2023-07-31T02:27:22;16.92;;;14.77;;
32918;SDS011;19280;42.646;21.150;2023-07-31T02:29:52;15.65;;;13.93;;
32918;SDS011;19280;42.646;21.150;2023-07-31T02:32:19;17.42;;;15.18;;
32918;SDS011;19280;42.646;21.150;2023-07-31T02:34:45;16.77;;;15.13;;
32918;SDS011;19280;42.646;21.150;2023-07-31T02:37:11;16.25;;;14.52;;
32918;SDS011;19280;42.646;21.150;2023-07-31T02:39:37;18.00;;;15.27;;
32918;SDS011;19280;42.646;21.150;2023-07-31T02:42:03;17.20;;;15.25;;
32918;SDS011;19280;42.646;21.150;2023-07-31T02:44:29;16.27;;;14.73;;
32918;SDS011;19280;42.646;21.150;2023-07-31T02:46:55;17.15;;;15.45;;
32918;SDS011;19280;42.646;21.150;2023-07-31T02:49:21;16.58;;;14.88;;
32918;SDS011;19280;42.646;21.150;2023-07-31T02:51:47;16.77;;;14.98;;
32918;SDS011;19280;42.646;21.150;2023-07-31T02:54:13;15.75;;;14.20;;
32918;SDS011;19280;42.646;21.150;2023-07-31T02:56:39;15.82;;;14.20;;
32918;SDS011;19280;42.646;21.150;2023-07-31T02:59:05;16.10;;;13.48;;
32918;SDS011;19280;42.646;21.150;2023-07-31T03:01:32;14.93;;;13.32;;
32918;SDS011;19280;42.646;21.150;2023-07-31T03:03:58;15.70;;;13.52;;
32918;SDS011;19280;42.646;21.150;2023-07-31T03:06:24;15.32;;;13.55;;
32918;SDS011;19280;42.646;21.150;2023-07-31T03:08:51;14.05;;;12.55;;
32918;SDS011;19280;42.646;21.150;2023-07-31T03:11:17;13.05;;;11.73;;
32918;SDS011;19280;42.646;21.150;2023-07-31T03:13:43;16.67;;;12.60;;
32918;SDS011;19280;42.646;21.150;2023-07-31T03:16:09;17.52;;;12.20;;
32918;SDS011;19280;42.646;21.150;2023-07-31T03:18:35;13.98;;;11.70;;
32918;SDS011;19280;42.646;21.150;2023-07-31T03:21:02;13.85;;;11.98;;
32918;SDS011;19280;42.646;21.150;2023-07-31T03:23:28;14.25;;;12.23;;
32918;SDS011;19280;42.646;21.150;2023-07-31T03:25:57;13.68;;;12.27;;
32918;SDS011;19280;42.646;21.150;2023-07-31T03:28:24;16.15;;;12.23;;
32918;SDS011;19280;42.646;21.150;2023-07-31T03:30:50;14.57;;;11.65;;
32918;SDS011;19280;42.646;21.150;2023-07-31T03:33:16;15.48;;;12.30;;
32918;SDS011;19280;42.646;21.150;2023-07-31T03:35:42;19.98;;;11.13;;
32918;SDS011;19280;42.646;21.150;2023-07-31T03:38:08;14.98;;;11.20;;
32918;SDS011;19280;42.646;21.150;2023-07-31T03:40:34;14.57;;;10.93;;
32918;SDS011;19280;42.646;21.150;2023-07-31T03:43:00;19.63;;;12.73;;
32918;SDS011;19280;42.646;21.150;2023-07-31T03:45:26;12.25;;;10.52;;
32918;SDS011;19280;42.646;21.150;2023-07-31T03:47:53;12.35;;;10.02;;
32918;SDS011;19280;42.646;21.150;2023-07-31T03:50:19;15.68;;;11.57;;
32918;SDS011;19280;42.646;21.150;2023-07-31T03:52:46;15.05;;;10.85;;
32918;SDS011;19280;42.646;21.150;2023-07-31T03:55:12;15.15;;;10.60;;
32918;SDS011;19280;42.646;21.150;2023-07-31T03:57:38;12.05;;;10.75;;
32918;SDS011;19280;42.646;21.150;2023-07-31T04:00:04;12.60;;;10.35;;
32918;SDS011;19280;42.646;21.150;2023-07-31T04:02:30;11.02;;;9.88;;
32918;SDS011;19280;42.646;21.150;2023-07-31T04:04:56;12.05;;;10.73;;
32918;SDS011;19280;42.646;21.150;2023-07-31T04:07:22;11.27;;;10.18;;
32918;SDS011;19280;42.646;21.150;2023-07-31T04:09:48;15.57;;;9.93;;
32918;SDS011;19280;42.646;21.150;2023-07-31T04:12:14;11.57;;;9.48;;
32918;SDS011;19280;42.646;21.150;2023-07-31T04:14:40;13.00;;;10.48;;
32918;SDS011;19280;42.646;21.150;2023-07-31T04:17:06;13.75;;;9.70;;
32918;SDS011;19280;42.646;21.150;2023-07-31T04:19:32;20.63;;;9.40;;
32918;SDS011;19280;42.646;21.150;2023-07-31T04:21:58;13.38;;;9.75;;
32918;SDS011;19280;42.646;21.150;2023-07-31T04:24:24;10.85;;;8.15;;
32918;SDS011;19280;42.646;21.150;2023-07-31T04:26:50;8.98;;;8.05;;
32918;SDS011;19280;42.646;21.150;2023-07-31T04:29:16;12.50;;;7.78;;
32918;SDS011;19280;42.646;21.150;2023-07-31T04:31:43;16.00;;;8.82;;
32918;SDS011;19280;42.646;21.150;2023-07-31T04:34:09;10.93;;;7.82;;
32918;SDS011;19280;42.646;21.150;2023-07-31T04:36:36;11.05;;;7.68;;
32918;SDS011;19280;42.646;21.150;2023-07-31T04:39:02;12.00;;;8.50;;
32918;SDS011;19280;42.646;21.150;2023-07-31T04:41:29;9.27;;;7.65;;
32918;SDS011;19280;42.646;21.150;2023-07-31T04:43:55;13.52;;;8.20;;
32918;SDS011;19280;42.646;21.150;2023-07-31T04:46:21;8.43;;;7.07;;
32918;SDS011;19280;42.646;21.150;2023-07-31T04:48:47;10.00;;;7.13;;
32918;SDS011;19280;42.646;21.150;2023-07-31T04:51:13;8.20;;;6.43;;
32918;SDS011;19280;42.646;21.150;2023-07-31T04:53:39;8.77;;;6.18;;
32918;SDS011;19280;42.646;21.150;2023-07-31T04:56:05;8.40;;;5.57;;
32918;SDS011;19280;42.646;21.150;2023-07-31T04:58:31;7.05;;;5.00;;
32918;SDS011;19280;42.646;21.150;2023-07-31T05:00:57;8.18;;;5.18;;
32918;SDS011;19280;42.646;21.150;2023-07-31T05:03:23;8.25;;;6.03;;
32918;SDS011;19280;42.646;21.150;2023-07-31T05:05:49;6.75;;;4.78;;
32918;SDS011;19280;42.646;21.150;2023-07-31T05:08:16;14.50;;;5.00;;
32918;SDS011;19280;42.646;21.150;2023-07-31T05:10:45;10.57;;;4.88;;
32918;SDS011;19280;42.646;21.150;2023-07-31T05:13:11;8.23;;;5.15;;
32918;SDS011;19280;42.646;21.150;2023-07-31T05:15:38;6.97;;;4.60;;
32918;SDS011;19280;42.646;21.150;2023-07-31T05:18:04;5.93;;;4.30;;
32918;SDS011;19280;42.646;21.150;2023-07-31T05:20:30;7.57;;;4.18;;
32918;SDS011;19280;42.646;21.150;2023-07-31T05:22:56;9.48;;;3.80;;
32918;SDS011;19280;42.646;21.150;2023-07-31T05:25:22;5.38;;;3.85;;
32918;SDS011;19280;42.646;21.150;2023-07-31T05:27:48;6.97;;;3.55;;
32918;SDS011;19280;42.646;21.150;2023-07-31T05:30:14;4.88;;;3.53;;
32918;SDS011;19280;42.646;21.150;2023-07-31T05:32:40;11.23;;;3.40;;
32918;SDS011;19280;42.646;21.150;2023-07-31T05:35:06;8.40;;;3.80;;
32918;SDS011;19280;42.646;21.150;2023-07-31T05:37:32;6.38;;;3.53;;
32918;SDS011;19280;42.646;21.150;2023-07-31T05:39:58;6.90;;;3.55;;
32918;SDS011;19280;42.646;21.150;2023-07-31T05:42:24;10.07;;;3.28;;
32918;SDS011;19280;42.646;21.150;2023-07-31T05:44:50;5.75;;;3.28;;
32918;SDS011;19280;42.646;21.150;2023-07-31T05:47:16;6.90;;;3.15;;
32918;SDS011;19280;42.646;21.150;2023-07-31T05:49:42;18.15;;;3.55;;
32918;SDS011;19280;42.646;21.150;2023-07-31T05:52:09;9.52;;;3.15;;
32918;SDS011;19280;42.646;21.150;2023-07-31T05:54:35;10.50;;;3.70;;
32918;SDS011;19280;42.646;21.150;2023-07-31T05:57:01;7.70;;;3.28;;
32918;SDS011;19280;42.646;21.150;2023-07-31T05:59:28;15.45;;;4.20;;
32918;SDS011;19280;42.646;21.150;2023-07-31T06:01:56;14.30;;;4.38;;
32918;SDS011;19280;42.646;21.150;2023-07-31T06:04:22;8.18;;;4.00;;
32918;SDS011;19280;42.646;21.150;2023-07-31T06:06:50;12.63;;;3.55;;
32918;SDS011;19280;42.646;21.150;2023-07-31T06:09:16;13.35;;;4.22;;
32918;SDS011;19280;42.646;21.150;2023-07-31T06:11:42;7.18;;;3.92;;
32918;SDS011;19280;42.646;21.150;2023-07-31T06:14:08;9.55;;;3.63;;
32918;SDS011;19280;42.646;21.150;2023-07-31T06:16:34;5.65;;;3.33;;
32918;SDS011;19280;42.646;21.150;2023-07-31T06:19:01;6.15;;;3.42;;
32918;SDS011;19280;42.646;21.150;2023-07-31T06:21:27;4.22;;;3.28;;
32918;SDS011;19280;42.646;21.150;2023-07-31T06:23:53;5.32;;;3.38;;
32918;SDS011;19280;42.646;21.150;2023-07-31T06:26:19;5.63;;;3.50;;
32918;SDS011;19280;42.646;21.150;2023-07-31T06:28:45;7.90;;;3.33;;
32918;SDS011;19280;42.646;21.150;2023-07-31T06:31:11;4.72;;;3.63;;
32918;SDS011;19280;42.646;21.150;2023-07-31T06:33:37;10.80;;;3.90;;
32918;SDS011;19280;42.646;21.150;2023-07-31T06:36:03;11.55;;;3.90;;
32918;SDS011;19280;42.646;21.150;2023-07-31T06:38:29;7.18;;;3.78;;
32918;SDS011;19280;42.646;21.150;2023-07-31T06:40:56;12.75;;;4.18;;
32918;SDS011;19280;42.646;21.150;2023-07-31T06:43:22;8.15;;;4.10;;
32918;SDS011;19280;42.646;21.150;2023-07-31T06:45:48;9.02;;;4.15;;
32918;SDS011;19280;42.646;21.150;2023-07-31T06:48:16;13.15;;;4.38;;
32918;SDS011;19280;42.646;21.150;2023-07-31T06:50:42;11.88;;;4.70;;
32918;SDS011;19280;42.646;21.150;2023-07-31T06:53:08;16.17;;;4.50;;
32918;SDS011;19280;42.646;21.150;2023-07-31T06:55:34;10.30;;;4.70;;
32918;SDS011;19280;42.646;21.150;2023-07-31T06:58:00;9.63;;;4.35;;
32918;SDS011;19280;42.646;21.150;2023-07-31T07:00:27;6.32;;;4.18;;
32918;SDS011;19280;42.646;21.150;2023-07-31T07:02:53;6.18;;;4.55;;
32918;SDS011;19280;42.646;21.150;2023-07-31T07:05:20;9.75;;;5.32;;
32918;SDS011;19280;42.646;21.150;2023-07-31T07:07:46;14.45;;;5.25;;
32918;SDS011;19280;42.646;21.150;2023-07-31T07:10:12;14.30;;;5.10;;
32918;SDS011;19280;42.646;21.150;2023-07-31T07:12:38;9.98;;;4.85;;
32918;SDS011;19280;42.646;21.150;2023-07-31T07:15:04;11.98;;;5.53;;
32918;SDS011;19280;42.646;21.150;2023-07-31T07:17:30;8.88;;;5.00;;
32918;SDS011;19280;42.646;21.150;2023-07-31T07:19:56;17.15;;;5.40;;
32918;SDS011;19280;42.646;21.150;2023-07-31T07:22:23;10.10;;;5.80;;
32918;SDS011;19280;42.646;21.150;2023-07-31T07:24:49;12.93;;;6.00;;
32918;SDS011;19280;42.646;21.150;2023-07-31T07:27:15;11.13;;;5.10;;
32918;SDS011;19280;42.646;21.150;2023-07-31T07:29:41;7.57;;;4.90;;
32918;SDS011;19280;42.646;21.150;2023-07-31T07:32:07;12.30;;;5.15;;
32918;SDS011;19280;42.646;21.150;2023-07-31T07:34:33;9.38;;;5.07;;
32918;SDS011;19280;42.646;21.150;2023-07-31T07:36:59;10.75;;;5.05;;
32918;SDS011;19280;42.646;21.150;2023-07-31T07:39:25;20.77;;;5.40;;
32918;SDS011;19280;42.646;21.150;2023-07-31T07:41:51;8.95;;;4.95;;
32918;SDS011;19280;42.646;21.150;2023-07-31T07:44:18;20.27;;;4.93;;
32918;SDS011;19280;42.646;21.150;2023-07-31T07:46:44;13.40;;;4.72;;
32918;SDS011;19280;42.646;21.150;2023-07-31T07:49:11;7.65;;;4.32;;
32918;SDS011;19280;42.646;21.150;2023-07-31T07:51:37;10.50;;;4.57;;
32918;SDS011;19280;42.646;21.150;2023-07-31T07:54:03;6.38;;;3.78;;
32918;SDS011;19280;42.646;21.150;2023-07-31T07:56:29;9.35;;;3.92;;
32918;SDS011;19280;42.646;21.150;2023-07-31T07:58:55;13.32;;;4.28;;
32918;SDS011;19280;42.646;21.150;2023-07-31T08:01:21;8.20;;;3.92;;
32918;SDS011;19280;42.646;21.150;2023-07-31T08:03:47;16.70;;;4.47;;
32918;SDS011;19280;42.646;21.150;2023-07-31T08:06:14;13.38;;;3.78;;
32918;SDS011;19280;42.646;21.150;2023-07-31T08:08:40;15.55;;;4.00;;
32918;SDS011;19280;42.646;21.150;2023-07-31T08:11:06;7.88;;;4.05;;
32918;SDS011;19280;42.646;21.150;2023-07-31T08:13:32;9.63;;;3.97;;
32918;SDS011;19280;42.646;21.150;2023-07-31T08:15:58;12.27;;;3.40;;
32918;SDS011;19280;42.646;21.150;2023-07-31T08:18:24;9.95;;;4.00;;
32918;SDS011;19280;42.646;21.150;2023-07-31T08:20:50;7.32;;;3.95;;
32918;SDS011;19280;42.646;21.150;2023-07-31T08:23:16;5.85;;;3.38;;
32918;SDS011;19280;42.646;21.150;2023-07-31T08:25:42;7.57;;;3.58;;
32918;SDS011;19280;42.646;21.150;2023-07-31T08:28:08;7.45;;;3.15;;
32918;SDS011;19280;42.646;21.150;2023-07-31T08:30:34;4.05;;;2.60;;
32918;SDS011;19280;42.646;21.150;2023-07-31T08:33:00;11.63;;;2.67;;
32918;SDS011;19280;42.646;21.150;2023-07-31T08:35:26;2.88;;;2.30;;
32918;SDS011;19280;42.646;21.150;2023-07-31T08:37:56;5.18;;;2.60;;
32918;SDS011;19280;42.646;21.150;2023-07-31T08:40:22;6.50;;;2.55;;
32918;SDS011;19280;42.646;21.150;2023-07-31T08:42:48;9.50;;;3.35;;
32918;SDS011;19280;42.646;21.150;2023-07-31T08:45:16;6.72;;;2.45;;
32918;SDS011;19280;42.646;21.150;2023-07-31T08:47:46;5.75;;;2.92;;
32918;SDS011;19280;42.646;21.150;2023-07-31T08:50:13;4.78;;;2.95;;
32918;SDS011;19280;42.646;21.150;2023-07-31T08:52:39;8.35;;;3.53;;
32918;SDS011;19280;42.646;21.150;2023-07-31T08:55:06;8.13;;;2.97;;
32918;SDS011;19280;42.646;21.150;2023-07-31T08:57:34;7.40;;;3.53;;
32918;SDS011;19280;42.646;21.150;2023-07-31T09:00:00;7.30;;;3.30;;
32918;SDS011;19280;42.646;21.150;2023-07-31T09:02:29;10.70;;;3.90;;
32918;SDS011;19280;42.646;21.150;2023-07-31T09:04:57;8.80;;;3.30;;
32918;SDS011;19280;42.646;21.150;2023-07-31T09:07:23;8.38;;;3.78;;
32918;SDS011;19280;42.646;21.150;2023-07-31T09:09:50;11.80;;;3.97;;
32918;SDS011;19280;42.646;21.150;2023-07-31T09:12:16;17.05;;;3.95;;
32918;SDS011;19280;42.646;21.150;2023-07-31T09:14:42;10.15;;;3.90;;
32918;SDS011;19280;42.646;21.150;2023-07-31T09:17:10;7.35;;;3.40;;
32918;SDS011;19280;42.646;21.150;2023-07-31T09:19:36;5.05;;;3.10;;
32918;SDS011;19280;42.646;21.150;2023-07-31T09:22:03;4.43;;;3.58;;
32918;SDS011;19280;42.646;21.150;2023-07-31T09:24:30;7.15;;;3.38;;
32918;SDS011;19280;42.646;21.150;2023-07-31T09:26:57;5.95;;;3.90;;
32918;SDS011;19280;42.646;21.150;2023-07-31T09:29:24;11.57;;;4.05;;
32918;SDS011;19280;42.646;21.150;2023-07-31T09:31:51;8.05;;;3.70;;
32918;SDS011;19280;42.646;21.150;2023-07-31T09:34:18;9.80;;;3.67;;
32918;SDS011;19280;42.646;21.150;2023-07-31T09:36:48;6.25;;;2.80;;
32918;SDS011;19280;42.646;21.150;2023-07-31T09:39:15;3.60;;;3.10;;
32918;SDS011;19280;42.646;21.150;2023-07-31T09:41:46;4.20;;;3.30;;
32918;SDS011;19280;42.646;21.150;2023-07-31T09:44:12;7.72;;;3.80;;
32918;SDS011;19280;42.646;21.150;2023-07-31T09:46:38;6.55;;;3.72;;
32918;SDS011;19280;42.646;21.150;2023-07-31T09:49:06;9.52;;;4.32;;
32918;SDS011;19280;42.646;21.150;2023-07-31T09:51:32;5.50;;;4.20;;
32918;SDS011;19280;42.646;21.150;2023-07-31T09:54:03;11.68;;;4.80;;
32918;SDS011;19280;42.646;21.150;2023-07-31T09:56:29;7.50;;;5.50;;
32918;SDS011;19280;42.646;21.150;2023-07-31T09:58:57;14.60;;;5.47;;
32918;SDS011;19280;42.646;21.150;2023-07-31T10:01:23;13.77;;;5.03;;
32918;SDS011;19280;42.646;21.150;2023-07-31T10:03:49;12.57;;;4.28;;
32918;SDS011;19280;42.646;21.150;2023-07-31T10:06:15;6.88;;;3.20;;
32918;SDS011;19280;42.646;21.150;2023-07-31T10:08:44;7.05;;;2.78;;
32918;SDS011;19280;42.646;21.150;2023-07-31T10:11:13;13.13;;;3.05;;
32918;SDS011;19280;42.646;21.150;2023-07-31T10:13:40;9.98;;;3.10;;
32918;SDS011;19280;42.646;21.150;2023-07-31T10:16:07;5.53;;;3.20;;
32918;SDS011;19280;42.646;21.150;2023-07-31T10:18:33;5.78;;;3.15;;
32918;SDS011;19280;42.646;21.150;2023-07-31T10:21:00;3.33;;;2.63;;
32918;SDS011;19280;42.646;21.150;2023-07-31T10:23:27;5.10;;;2.85;;
32918;SDS011;19280;42.646;21.150;2023-07-31T10:25:53;11.45;;;2.95;;
32918;SDS011;19280;42.646;21.150;2023-07-31T10:28:20;7.43;;;2.92;;
32918;SDS011;19280;42.646;21.150;2023-07-31T10:30:46;10.63;;;2.70;;
32918;SDS011;19280;42.646;21.150;2023-07-31T10:33:13;17.15;;;3.03;;
32918;SDS011;19280;42.646;21.150;2023-07-31T10:35:39;6.70;;;2.63;;
32918;SDS011;19280;42.646;21.150;2023-07-31T10:38:11;5.25;;;2.47;;
32918;SDS011;19280;42.646;21.150;2023-07-31T10:40:37;6.47;;;2.20;;
32918;SDS011;19280;42.646;21.150;2023-07-31T10:43:03;7.88;;;2.35;;
32918;SDS011;19280;42.646;21.150;2023-07-31T10:48:00;4.88;;;2.58;;
32918;SDS011;19280;42.646;21.150;2023-07-31T10:50:27;4.65;;;2.55;;
32918;SDS011;19280;42.646;21.150;2023-07-31T10:52:54;8.38;;;2.70;;
32918;SDS011;19280;42.646;21.150;2023-07-31T10:57:49;3.35;;;2.58;;
32918;SDS011;19280;42.646;21.150;2023-07-31T11:08:12;2.53;;;2.05;;
32918;SDS011;19280;42.646;21.150;2023-07-31T11:10:38;5.80;;;1.70;;
32918;SDS011;19280;42.646;21.150;2023-07-31T11:13:04;4.60;;;1.95;;
32918;SDS011;19280;42.646;21.150;2023-07-31T11:15:30;3.28;;;1.80;;
32918;SDS011;19280;42.646;21.150;2023-07-31T11:17:56;4.75;;;3.05;;
32918;SDS011;19280;42.646;21.150;2023-07-31T11:20:26;3.47;;;2.40;;
32918;SDS011;19280;42.646;21.150;2023-07-31T11:22:52;3.13;;;2.30;;
32918;SDS011;19280;42.646;21.150;2023-07-31T11:25:18;2.33;;;2.08;;
32918;SDS011;19280;42.646;21.150;2023-07-31T11:27:45;3.90;;;2.42;;
32918;SDS011;19280;42.646;21.150;2023-07-31T11:30:11;3.42;;;2.40;;
32918;SDS011;19280;42.646;21.150;2023-07-31T11:32:37;2.08;;;1.88;;
32918;SDS011;19280;42.646;21.150;2023-07-31T11:35:03;5.22;;;2.20;;
32918;SDS011;19280;42.646;21.150;2023-07-31T11:37:40;4.85;;;2.30;;
32918;SDS011;19280;42.646;21.150;2023-07-31T11:40:06;6.35;;;2.80;;
32918;SDS011;19280;42.646;21.150;2023-07-31T11:42:34;3.25;;;2.40;;
32918;SDS011;19280;42.646;21.150;2023-07-31T11:45:06;10.70;;;2.75;;
32918;SDS011;19280;42.646;21.150;2023-07-31T11:47:33;2.75;;;2.40;;
32918;SDS011;19280;42.646;21.150;2023-07-31T11:50:00;4.38;;;2.65;;
32918;SDS011;19280;42.646;21.150;2023-07-31T11:52:27;4.72;;;2.90;;
32918;SDS011;19280;42.646;21.150;2023-07-31T11:54:54;6.43;;;2.50;;
32918;SDS011;19280;42.646;21.150;2023-07-31T11:57:20;12.80;;;3.35;;
32918;SDS011;19280;42.646;21.150;2023-07-31T11:59:47;5.30;;;2.28;;
32918;SDS011;19280;42.646;21.150;2023-07-31T12:02:13;11.43;;;2.45;;
32918;SDS011;19280;42.646;21.150;2023-07-31T12:04:39;4.43;;;3.35;;
32918;SDS011;19280;42.646;21.150;2023-07-31T12:07:06;5.95;;;3.10;;
32918;SDS011;19280;42.646;21.150;2023-07-31T12:09:32;3.75;;;2.20;;
32918;SDS011;19280;42.646;21.150;2023-07-31T12:11:58;3.78;;;1.70;;
32918;SDS011;19280;42.646;21.150;2023-07-31T12:14:25;4.07;;;2.15;;
32918;SDS011;19280;42.646;21.150;2023-07-31T12:16:57;6.15;;;2.00;;
32918;SDS011;19280;42.646;21.150;2023-07-31T12:19:27;8.40;;;2.17;;
32918;SDS011;19280;42.646;21.150;2023-07-31T12:21:55;6.32;;;2.50;;
32918;SDS011;19280;42.646;21.150;2023-07-31T12:24:21;8.75;;;2.40;;
32918;SDS011;19280;42.646;21.150;2023-07-31T12:26:48;3.22;;;2.47;;
32918;SDS011;19280;42.646;21.150;2023-07-31T12:29:14;4.95;;;2.00;;
32918;SDS011;19280;42.646;21.150;2023-07-31T12:31:41;4.03;;;2.50;;
32918;SDS011;19280;42.646;21.150;2023-07-31T12:34:17;3.97;;;2.45;;
32918;SDS011;19280;42.646;21.150;2023-07-31T12:36:44;3.65;;;2.30;;
32918;SDS011;19280;42.646;21.150;2023-07-31T12:39:10;7.30;;;2.40;;
32918;SDS011;19280;42.646;21.150;2023-07-31T12:41:36;5.47;;;2.50;;
32918;SDS011;19280;42.646;21.150;2023-07-31T12:44:02;6.75;;;2.75;;
32918;SDS011;19280;42.646;21.150;2023-07-31T12:46:28;13.20;;;2.60;;
32918;SDS011;19280;42.646;21.150;2023-07-31T12:48:54;6.72;;;2.53;;
32918;SDS011;19280;42.646;21.150;2023-07-31T12:51:21;6.75;;;2.40;;
32918;SDS011;19280;42.646;21.150;2023-07-31T12:53:47;4.80;;;2.97;;
32918;SDS011;19280;42.646;21.150;2023-07-31T12:56:13;7.70;;;2.15;;
32918;SDS011;19280;42.646;21.150;2023-07-31T12:58:40;4.05;;;1.90;;
32918;SDS011;19280;42.646;21.150;2023-07-31T13:01:06;5.05;;;2.95;;
32918;SDS011;19280;42.646;21.150;2023-07-31T13:03:32;4.07;;;2.75;;
32918;SDS011;19280;42.646;21.150;2023-07-31T13:05:58;5.68;;;2.58;;
32918;SDS011;19280;42.646;21.150;2023-07-31T13:08:24;4.13;;;2.47;;
32918;SDS011;19280;42.646;21.150;2023-07-31T13:10:50;6.82;;;2.97;;
32918;SDS011;19280;42.646;21.150;2023-07-31T13:13:17;8.25;;;2.83;;
32918;SDS011;19280;42.646;21.150;2023-07-31T13:15:43;3.22;;;2.20;;
32918;SDS011;19280;42.646;21.150;2023-07-31T13:18:10;3.42;;;2.40;;
32918;SDS011;19280;42.646;21.150;2023-07-31T13:20:36;2.97;;;2.20;;
32918;SDS011;19280;42.646;21.150;2023-07-31T13:23:02;2.92;;;2.60;;
32918;SDS011;19280;42.646;21.150;2023-07-31T13:25:28;4.00;;;2.15;;
32918;SDS011;19280;42.646;21.150;2023-07-31T13:27:54;5.55;;;2.22;;
32918;SDS011;19280;42.646;21.150;2023-07-31T13:30:21;5.40;;;2.47;;
32918;SDS011;19280;42.646;21.150;2023-07-31T13:32:47;6.72;;;2.42;;
32918;SDS011;19280;42.646;21.150;2023-07-31T13:35:13;5.78;;;3.30;;
32918;SDS011;19280;42.646;21.150;2023-07-31T13:37:39;3.65;;;2.33;;
32918;SDS011;19280;42.646;21.150;2023-07-31T13:40:05;5.13;;;2.92;;
32918;SDS011;19280;42.646;21.150;2023-07-31T13:42:31;4.88;;;2.30;;
32918;SDS011;19280;42.646;21.150;2023-07-31T13:44:57;9.05;;;2.55;;
32918;SDS011;19280;42.646;21.150;2023-07-31T13:47:23;3.03;;;2.55;;
32918;SDS011;19280;42.646;21.150;2023-07-31T13:49:50;3.53;;;2.28;;
32918;SDS011;19280;42.646;21.150;2023-07-31T13:52:16;2.92;;;2.53;;
32918;SDS011;19280;42.646;21.150;2023-07-31T13:54:42;3.75;;;3.25;;
32918;SDS011;19280;42.646;21.150;2023-07-31T13:57:08;2.83;;;2.60;;
32918;SDS011;19280;42.646;21.150;2023-07-31T13:59:34;3.42;;;3.00;;
32918;SDS011;19280;42.646;21.150;2023-07-31T14:02:01;5.65;;;2.75;;
32918;SDS011;19280;42.646;21.150;2023-07-31T14:04:27;6.22;;;3.60;;
32918;SDS011;19280;42.646;21.150;2023-07-31T14:06:53;6.22;;;2.92;;
32918;SDS011;19280;42.646;21.150;2023-07-31T14:09:19;6.28;;;2.30;;
32918;SDS011;19280;42.646;21.150;2023-07-31T14:11:45;5.00;;;2.65;;
32918;SDS011;19280;42.646;21.150;2023-07-31T14:14:11;7.20;;;2.65;;
32918;SDS011;19280;42.646;21.150;2023-07-31T14:16:38;7.60;;;2.70;;
32918;SDS011;19280;42.646;21.150;2023-07-31T14:19:04;4.43;;;2.45;;
32918;SDS011;19280;42.646;21.150;2023-07-31T14:21:32;8.10;;;3.08;;
32918;SDS011;19280;42.646;21.150;2023-07-31T14:23:58;8.95;;;2.72;;
32918;SDS011;19280;42.646;21.150;2023-07-31T14:26:24;2.88;;;2.30;;
32918;SDS011;19280;42.646;21.150;2023-07-31T14:28:50;3.35;;;2.70;;
32918;SDS011;19280;42.646;21.150;2023-07-31T14:31:16;2.63;;;2.25;;
32918;SDS011;19280;42.646;21.150;2023-07-31T14:33:42;8.75;;;2.55;;
32918;SDS011;19280;42.646;21.150;2023-07-31T14:36:08;2.97;;;1.73;;
32918;SDS011;19280;42.646;21.150;2023-07-31T14:38:34;2.35;;;2.15;;
32918;SDS011;19280;42.646;21.150;2023-07-31T14:41:00;6.20;;;2.45;;